Time;durP1;ratioP1;P1;durP2;ratioP2;P2;SDS_P1;SDS_P2;PMS_P1;PMS_P2;Temp;Humidity;BMP_temperature;BMP_pressure;BME280_temperature;BME280_humidity;BME280_pressure;Samples;Min_cycle;Max_cycle;Signal;HPM_P1;HPM_P2
2020/12/14 00:01:27;;;;;;;0.20;0.20;;;;;;;;;;5111938;28;20283;-77
2020/12/14 00:03:52;;;;;;;0.30;0.30;;;;;;;;;;5112350;28;20332;-77
2020/12/14 00:06:17;;;;;;;0.28;0.28;;;;;;;;;;5113704;28;20062;-77
2020/12/14 00:08:43;;;;;;;0.20;0.20;;;;;;;;;;5111871;28;20136;-77
2020/12/14 00:11:08;;;;;;;0.20;0.20;;;;;;;;;;5112353;28;20035;-77
2020/12/14 00:13:34;;;;;;;0.20;0.20;;;;;;;;;;5095018;28;20269;-77
2020/12/14 00:15:59;;;;;;;0.20;0.20;;;;;;;;;;5094600;28;20356;-77
2020/12/14 00:18:24;;;;;;;0.30;0.30;;;;;;;;;;5112674;28;20024;-77
2020/12/14 00:20:49;;;;;;;0.20;0.20;;;;;;;;;;5112077;28;20319;-77
2020/12/14 00:23:14;;;;;;;0.30;0.30;;;;;;;;;;5095384;28;20039;-77
2020/12/14 00:25:39;;;;;;;0.20;0.20;;;;;;;;;;5092897;28;20070;-77
2020/12/14 00:28:05;;;;;;;0.20;0.20;;;;;;;;;;5112191;28;20182;-77
2020/12/14 00:30:30;;;;;;;0.30;0.30;;;;;;;;;;5095267;28;20023;-77
2020/12/14 00:32:55;;;;;;;0.30;0.30;;;;;;;;;;5094740;28;20537;-77
2020/12/14 00:35:20;;;;;;;0.20;0.20;;;;;;;;;;5111725;28;20023;-78
2020/12/14 00:37:45;;;;;;;0.30;0.30;;;;;;;;;;5095186;28;20028;-78
2020/12/14 00:40:11;;;;;;;0.20;0.20;;;;;;;;;;5112168;28;20035;-77
2020/12/14 00:42:41;;;;;;;0.20;0.20;;;;;;;;;;5112229;28;20039;-78
2020/12/14 00:45:06;;;;;;;0.20;0.20;;;;;;;;;;5094761;28;20499;-77
2020/12/14 00:47:31;;;;;;;0.30;0.30;;;;;;;;;;5113322;28;20051;-77
2020/12/14 00:49:57;;;;;;;0.30;0.30;;;;;;;;;;5113240;28;20034;-77
2020/12/14 00:52:22;;;;;;;0.20;0.20;;;;;;;;;;5094901;28;20027;-77
2020/12/14 00:54:47;;;;;;;0.30;0.30;;;;;;;;;;5111921;28;20273;-77
2020/12/14 00:57:14;;;;;;;0.20;0.20;;;;;;;;;;5091180;28;20073;-77
2020/12/14 00:59:39;;;;;;;0.20;0.20;;;;;;;;;;5093008;28;20040;-77
2020/12/14 01:02:05;;;;;;;0.30;0.30;;;;;;;;;;5093360;28;20032;-77
2020/12/14 01:04:31;;;;;;;0.30;0.30;;;;;;;;;;5096328;28;20020;-77
2020/12/14 01:06:56;;;;;;;0.30;0.30;;;;;;;;;;5112300;28;20514;-77
2020/12/14 01:09:22;;;;;;;0.28;0.28;;;;;;;;;;5094721;28;20032;-77
2020/12/14 01:11:47;;;;;;;0.20;0.20;;;;;;;;;;5111980;28;20030;-77
2020/12/14 01:14:12;;;;;;;0.20;0.20;;;;;;;;;;5111952;28;20054;-77
2020/12/14 01:16:37;;;;;;;0.20;0.20;;;;;;;;;;5111699;28;20024;-77
2020/12/14 01:19:03;;;;;;;0.25;0.25;;;;;;;;;;5113180;28;20261;-77
2020/12/14 01:21:28;;;;;;;0.28;0.28;;;;;;;;;;5113131;28;20031;-77
2020/12/14 01:23:54;;;;;;;0.20;0.20;;;;;;;;;;5111928;28;20034;-78
2020/12/14 01:26:19;;;;;;;0.30;0.30;;;;;;;;;;5112777;28;20330;-77
2020/12/14 01:28:44;;;;;;;0.20;0.20;;;;;;;;;;5112391;28;20035;-78
2020/12/14 01:31:10;;;;;;;0.30;0.30;;;;;;;;;;5115014;28;20038;-78
2020/12/14 01:33:36;;;;;;;0.20;0.20;;;;;;;;;;5116180;28;20027;-77
2020/12/14 01:36:01;;;;;;;0.28;0.28;;;;;;;;;;5099511;28;20028;-78
2020/12/14 01:38:26;;;;;;;0.30;0.30;;;;;;;;;;5117717;28;20027;-77
2020/12/14 01:40:52;;;;;;;0.20;0.20;;;;;;;;;;5116995;28;20052;-77
2020/12/14 01:43:17;;;;;;;0.20;0.20;;;;;;;;;;5118587;28;20027;-77
2020/12/14 01:45:43;;;;;;;0.30;0.30;;;;;;;;;;5119379;28;20479;-77
2020/12/14 01:48:08;;;;;;;0.20;0.20;;;;;;;;;;5126397;28;20447;-77
2020/12/14 01:50:34;;;;;;;0.20;0.20;;;;;;;;;;5115517;28;20038;-77
2020/12/14 01:52:59;;;;;;;0.30;0.30;;;;;;;;;;5109868;28;20028;-77
2020/12/14 01:55:25;;;;;;;0.30;0.30;;;;;;;;;;5129600;28;20067;-74
2020/12/14 01:57:50;;;;;;;0.20;0.20;;;;;;;;;;5110277;28;20333;-74
2020/12/14 02:00:15;;;;;;;0.30;0.30;;;;;;;;;;5104191;28;20047;-77
2020/12/14 02:02:40;;;;;;;0.20;0.20;;;;;;;;;;5095540;28;20269;-77
2020/12/14 02:05:05;;;;;;;0.20;0.20;;;;;;;;;;5095008;28;20043;-77
2020/12/14 02:07:31;;;;;;;0.20;0.20;;;;;;;;;;5096619;28;20319;-77
2020/12/14 02:09:56;;;;;;;0.20;0.20;;;;;;;;;;5097972;28;20027;-77
2020/12/14 02:12:25;;;;;;;0.20;0.20;;;;;;;;;;5098364;28;20024;-78
2020/12/14 02:14:51;;;;;;;0.20;0.20;;;;;;;;;;5115520;28;20257;-76
2020/12/14 02:17:18;;;;;;;0.20;0.20;;;;;;;;;;5115223;28;20042;-76
2020/12/14 02:19:43;;;;;;;0.20;0.20;;;;;;;;;;5114942;28;20446;-77
2020/12/14 02:22:09;;;;;;;0.20;0.20;;;;;;;;;;5098172;28;20062;-77
2020/12/14 02:24:34;;;;;;;0.20;0.20;;;;;;;;;;5098225;28;20131;-76
2020/12/14 02:26:59;;;;;;;0.20;0.20;;;;;;;;;;5097957;28;20641;-76
2020/12/14 02:29:24;;;;;;;0.30;0.30;;;;;;;;;;5115049;28;20274;-77
2020/12/14 02:31:50;;;;;;;0.20;0.20;;;;;;;;;;5098131;28;20036;-76
2020/12/14 02:34:15;;;;;;;0.20;0.20;;;;;;;;;;5114777;28;21120;-77
2020/12/14 02:36:41;;;;;;;0.20;0.20;;;;;;;;;;5115101;28;20293;-77
2020/12/14 02:39:06;;;;;;;0.28;0.28;;;;;;;;;;5094122;28;20127;-76
2020/12/14 02:41:32;;;;;;;0.30;0.30;;;;;;;;;;5109878;28;20032;-77
2020/12/14 02:43:57;;;;;;;0.20;0.20;;;;;;;;;;5097703;28;20038;-76
2020/12/14 02:46:22;;;;;;;0.20;0.20;;;;;;;;;;5097529;28;20106;-76
2020/12/14 02:48:47;;;;;;;0.30;0.30;;;;;;;;;;5097434;28;20024;-77
2020/12/14 02:51:16;;;;;;;0.20;0.20;;;;;;;;;;5097070;28;20338;-76
2020/12/14 02:53:42;;;;;;;0.30;0.30;;;;;;;;;;5114431;28;20031;-76
2020/12/14 02:56:07;;;;;;;0.20;0.20;;;;;;;;;;5115429;28;20044;-77
2020/12/14 02:58:33;;;;;;;0.20;0.20;;;;;;;;;;5097984;28;20467;-77
2020/12/14 03:01:01;;;;;;;0.20;0.20;;;;;;;;;;5095029;28;20315;-76
2020/12/14 03:03:26;;;;;;;0.20;0.20;;;;;;;;;;5094463;28;20028;-76
2020/12/14 03:05:51;;;;;;;0.20;0.20;;;;;;;;;;5094004;28;20476;-77
2020/12/14 03:08:16;;;;;;;0.30;0.30;;;;;;;;;;5093158;28;20277;-77
2020/12/14 03:10:42;;;;;;;0.20;0.20;;;;;;;;;;5107182;28;20074;-77
2020/12/14 03:13:07;;;;;;;0.22;0.22;;;;;;;;;;5113057;28;20035;-77
2020/12/14 03:15:33;;;;;;;0.30;0.30;;;;;;;;;;5113073;28;20019;-77
2020/12/14 03:17:58;;;;;;;0.30;0.30;;;;;;;;;;5113646;28;20130;-78
2020/12/14 03:20:23;;;;;;;0.30;0.30;;;;;;;;;;5096347;28;20161;-77
2020/12/14 03:22:48;;;;;;;0.30;0.30;;;;;;;;;;5083106;28;20373;-77
2020/12/14 03:25:13;;;;;;;0.30;0.30;;;;;;;;;;5105625;28;20289;-77
2020/12/14 03:27:39;;;;;;;0.30;0.30;;;;;;;;;;5115225;28;20043;-77
2020/12/14 03:30:04;;;;;;;0.20;0.20;;;;;;;;;;5113332;28;20024;-77
2020/12/14 03:32:30;;;;;;;0.20;0.20;;;;;;;;;;5113262;28;20272;-77
2020/12/14 03:34:55;;;;;;;0.30;0.30;;;;;;;;;;5113314;28;20028;-77
2020/12/14 03:37:21;;;;;;;0.30;0.30;;;;;;;;;;5112747;28;20034;-78
2020/12/14 03:39:46;;;;;;;0.30;0.30;;;;;;;;;;5112794;28;20031;-77
2020/12/14 03:42:11;;;;;;;0.30;0.30;;;;;;;;;;5113897;28;20835;-77
2020/12/14 03:44:37;;;;;;;0.30;0.30;;;;;;;;;;5112513;28;20552;-77
2020/12/14 03:47:02;;;;;;;0.30;0.30;;;;;;;;;;5112517;28;20429;-77
2020/12/14 03:49:28;;;;;;;0.30;0.30;;;;;;;;;;5111482;28;20046;-77
2020/12/14 03:51:54;;;;;;;0.30;0.30;;;;;;;;;;5106431;28;20109;-77
2020/12/14 03:54:21;;;;;;;0.20;0.20;;;;;;;;;;5083109;28;20035;-76
2020/12/14 03:56:46;;;;;;;0.30;0.30;;;;;;;;;;5073181;28;20745;-77
2020/12/14 03:59:12;;;;;;;0.20;0.20;;;;;;;;;;5058600;28;20031;-77
2020/12/14 04:01:37;;;;;;;0.30;0.30;;;;;;;;;;5075679;28;20032;-77
2020/12/14 04:04:02;;;;;;;0.30;0.30;;;;;;;;;;5059171;28;20039;-77
2020/12/14 04:06:28;;;;;;;0.30;0.30;;;;;;;;;;5059668;28;20296;-77
2020/12/14 04:08:53;;;;;;;0.30;0.30;;;;;;;;;;5076142;28;20365;-77
2020/12/14 04:11:19;;;;;;;0.30;0.30;;;;;;;;;;5058969;28;20040;-77
2020/12/14 04:13:44;;;;;;;0.30;0.30;;;;;;;;;;5059041;28;20016;-77
2020/12/14 04:16:09;;;;;;;0.20;0.20;;;;;;;;;;5059046;28;20055;-77
2020/12/14 04:18:35;;;;;;;0.20;0.20;;;;;;;;;;5058692;28;20492;-77
2020/12/14 04:21:00;;;;;;;0.30;0.30;;;;;;;;;;5075743;28;20055;-77
2020/12/14 04:23:26;;;;;;;0.20;0.20;;;;;;;;;;5094199;28;20031;-77
2020/12/14 04:25:51;;;;;;;0.30;0.30;;;;;;;;;;5076519;28;20081;-77
2020/12/14 04:28:17;;;;;;;0.23;0.23;;;;;;;;;;5075925;28;20054;-77
2020/12/14 04:30:42;;;;;;;0.30;0.30;;;;;;;;;;5075850;28;20286;-77
2020/12/14 04:33:08;;;;;;;0.30;0.30;;;;;;;;;;5061398;28;20024;-77
2020/12/14 04:35:33;;;;;;;0.30;0.30;;;;;;;;;;5098238;28;20258;-77
2020/12/14 04:37:59;;;;;;;0.30;0.30;;;;;;;;;;5070481;28;20016;-78
2020/12/14 04:40:28;;;;;;;0.20;0.20;;;;;;;;;;5099917;28;20315;-79
2020/12/14 04:42:54;;;;;;;0.20;0.20;;;;;;;;;;5099337;28;20016;-77
2020/12/14 04:45:20;;;;;;;0.30;0.30;;;;;;;;;;5095113;28;20043;-78
2020/12/14 04:47:45;;;;;;;0.30;0.30;;;;;;;;;;5092564;28;20032;-77
2020/12/14 04:50:10;;;;;;;0.28;0.28;;;;;;;;;;5065971;28;20095;-77
2020/12/14 04:52:36;;;;;;;0.30;0.30;;;;;;;;;;5066991;28;20523;-77
2020/12/14 04:55:02;;;;;;;0.30;0.30;;;;;;;;;;5065845;28;20075;-77
2020/12/14 04:57:27;;;;;;;0.20;0.20;;;;;;;;;;5089140;28;20266;-77
2020/12/14 04:59:52;;;;;;;0.20;0.20;;;;;;;;;;5102269;28;20046;-78
2020/12/14 05:02:18;;;;;;;0.30;0.30;;;;;;;;;;5111384;28;20043;-77
2020/12/14 05:04:43;;;;;;;0.30;0.30;;;;;;;;;;5111086;28;20039;-77
2020/12/14 05:07:12;;;;;;;0.30;0.30;;;;;;;;;;5111854;28;20065;-77
2020/12/14 05:09:37;;;;;;;0.25;0.25;;;;;;;;;;5111562;28;20052;-77
2020/12/14 05:12:15;;;;;;;0.28;0.28;;;;;;;;;;5112982;28;20097;-77
2020/12/14 05:14:40;;;;;;;0.30;0.30;;;;;;;;;;5094951;28;20028;-77
2020/12/14 05:17:06;;;;;;;0.30;0.30;;;;;;;;;;5111581;28;20615;-77
2020/12/14 05:19:31;;;;;;;0.30;0.30;;;;;;;;;;5090838;28;20270;-78
2020/12/14 05:21:58;;;;;;;0.30;0.30;;;;;;;;;;5111208;28;20265;-77
2020/12/14 05:24:30;;;;;;;0.20;0.20;;;;;;;;;;5094389;28;20513;-77
2020/12/14 05:26:55;;;;;;;0.30;0.30;;;;;;;;;;5111966;28;20058;-76
2020/12/14 05:29:23;;;;;;;0.30;0.30;;;;;;;;;;5111935;28;20079;-77
2020/12/14 05:32:10;;;;;;;0.20;0.20;;;;;;;;;;5111945;28;20092;-77
2020/12/14 05:34:39;;;;;;;0.30;0.30;;;;;;;;;;5094696;28;20028;-77
2020/12/14 05:37:05;;;;;;;0.20;0.20;;;;;;;;;;5094704;28;20032;-76
2020/12/14 05:39:30;;;;;;;0.20;0.20;;;;;;;;;;5112140;28;20030;-77
2020/12/14 05:42:16;;;;;;;0.20;0.20;;;;;;;;;;5111420;28;20028;-77
2020/12/14 05:44:42;;;;;;;0.30;0.30;;;;;;;;;;5112357;28;20039;-77
2020/12/14 05:47:27;;;;;;;0.22;0.22;;;;;;;;;;5111628;28;20486;-77
2020/12/14 05:49:52;;;;;;;0.20;0.20;;;;;;;;;;5094773;28;20027;-77
2020/12/14 05:52:21;;;;;;;0.20;0.20;;;;;;;;;;5111614;28;20393;-77
2020/12/14 05:54:53;;;;;;;0.20;0.20;;;;;;;;;;5094753;28;20422;-77
2020/12/14 05:57:35;;;;;;;0.20;0.20;;;;;;;;;;5111158;28;20019;-77
2020/12/14 06:00:09;;;;;;;0.20;0.20;;;;;;;;;;5111890;28;20490;-77
2020/12/14 06:02:35;;;;;;;0.30;0.30;;;;;;;;;;5094192;28;20038;-77
2020/12/14 06:05:03;;;;;;;0.20;0.20;;;;;;;;;;5112087;28;20953;-78
2020/12/14 06:07:29;;;;;;;0.30;0.30;;;;;;;;;;5112964;28;20460;-79
2020/12/14 06:10:08;;;;;;;0.20;0.20;;;;;;;;;;5092338;28;20036;-80
2020/12/14 06:12:38;;;;;;;0.20;0.20;;;;;;;;;;5109475;28;20103;-79
2020/12/14 06:15:10;;;;;;;0.20;0.20;;;;;;;;;;5108776;28;20114;-79
2020/12/14 06:17:36;;;;;;;0.20;0.20;;;;;;;;;;5117301;28;20027;-80
2020/12/14 06:20:03;;;;;;;0.30;0.30;;;;;;;;;;5116464;28;20376;-79
2020/12/14 06:22:29;;;;;;;0.25;0.25;;;;;;;;;;5088559;28;20173;-79
2020/12/14 06:24:55;;;;;;;0.20;0.20;;;;;;;;;;5110676;28;20073;-79
2020/12/14 06:27:22;;;;;;;0.20;0.20;;;;;;;;;;5114175;28;20039;-79
2020/12/14 06:29:48;;;;;;;0.20;0.20;;;;;;;;;;5093932;28;20035;-79
2020/12/14 06:32:32;;;;;;;0.30;0.30;;;;;;;;;;5130546;27;20024;-80
2020/12/14 06:34:57;;;;;;;0.20;0.20;;;;;;;;;;5149170;27;20091;-80
2020/12/14 06:37:22;;;;;;;0.30;0.30;;;;;;;;;;5103776;27;20034;-80
2020/12/14 06:39:54;;;;;;;0.30;0.30;;;;;;;;;;5130407;27;20329;-81
2020/12/14 06:42:19;;;;;;;0.30;0.30;;;;;;;;;;5115024;28;20511;-81
2020/12/14 06:44:44;;;;;;;0.30;0.30;;;;;;;;;;5105565;28;20036;-81
2020/12/14 06:47:16;;;;;;;0.30;0.30;;;;;;;;;;5134976;27;20042;-80
2020/12/14 06:49:42;;;;;;;0.28;0.28;;;;;;;;;;5127954;27;20290;-78
2020/12/14 06:52:08;;;;;;;0.20;0.20;;;;;;;;;;5096399;28;20035;-80
2020/12/14 06:54:40;;;;;;;0.20;0.20;;;;;;;;;;5082612;27;20024;-79
2020/12/14 06:57:05;;;;;;;0.20;0.20;;;;;;;;;;5120491;27;20265;-79
2020/12/14 06:59:31;;;;;;;0.20;0.20;;;;;;;;;;5114316;28;20111;-80
2020/12/14 07:01:57;;;;;;;0.20;0.20;;;;;;;;;;5119486;28;20387;-79
2020/12/14 07:04:28;;;;;;;0.20;0.20;;;;;;;;;;5100902;28;20050;-79
2020/12/14 07:06:57;;;;;;;0.20;0.20;;;;;;;;;;5100738;28;20114;-80
2020/12/14 07:09:29;;;;;;;0.30;0.30;;;;;;;;;;5103496;28;20032;-80
2020/12/14 07:11:54;;;;;;;0.20;0.20;;;;;;;;;;5100953;28;20480;-78
2020/12/14 07:14:26;;;;;;;0.30;0.30;;;;;;;;;;5089907;28;20027;-78
2020/12/14 07:16:52;;;;;;;0.20;0.20;;;;;;;;;;5100510;28;20034;-80
2020/12/14 07:19:17;;;;;;;0.20;0.20;;;;;;;;;;5089123;28;20024;-81
2020/12/14 07:21:43;;;;;;;0.20;0.20;;;;;;;;;;5111363;28;20258;-81
2020/12/14 07:24:08;;;;;;;0.20;0.20;;;;;;;;;;5082581;28;20020;-81
2020/12/14 07:26:33;;;;;;;0.20;0.20;;;;;;;;;;5082495;28;20068;-81
2020/12/14 07:28:58;;;;;;;0.30;0.30;;;;;;;;;;5086683;28;20289;-82
2020/12/14 07:31:25;;;;;;;0.20;0.20;;;;;;;;;;5118821;28;20027;-79
2020/12/14 07:33:57;;;;;;;0.20;0.20;;;;;;;;;;5102634;28;20076;-80
2020/12/14 07:36:22;;;;;;;0.30;0.30;;;;;;;;;;5098394;28;20019;-82
2020/12/14 07:38:52;;;;;;;0.20;0.20;;;;;;;;;;5079353;28;20023;-78
2020/12/14 07:41:17;;;;;;;0.30;0.30;;;;;;;;;;5100007;27;20039;-76
2020/12/14 07:43:43;;;;;;;0.20;0.20;;;;;;;;;;5100797;27;20432;-77
2020/12/14 07:46:18;;;;;;;0.20;0.20;;;;;;;;;;5077876;28;20032;-79
2020/12/14 07:48:50;;;;;;;0.20;0.20;;;;;;;;;;5095533;28;20441;-77
2020/12/14 07:51:15;;;;;;;0.20;0.20;;;;;;;;;;5102745;28;20537;-79
2020/12/14 07:53:40;;;;;;;0.20;0.20;;;;;;;;;;5088569;28;20024;-79
2020/12/14 07:56:05;;;;;;;0.20;0.20;;;;;;;;;;5102627;28;20050;-78
2020/12/14 07:58:31;;;;;;;0.20;0.20;;;;;;;;;;5117200;28;20630;-79
2020/12/14 08:00:56;;;;;;;0.20;0.20;;;;;;;;;;5121837;28;20503;-80
2020/12/14 08:03:22;;;;;;;0.20;0.20;;;;;;;;;;5124025;28;20031;-81
2020/12/14 08:05:48;;;;;;;0.20;0.20;;;;;;;;;;5120716;28;20024;-79
2020/12/14 08:08:13;;;;;;;0.30;0.30;;;;;;;;;;5120255;27;20459;-80
2020/12/14 08:10:38;;;;;;;0.20;0.20;;;;;;;;;;5100208;27;20035;-79
2020/12/14 08:13:09;;;;;;;0.30;0.25;;;;;;;;;;5119970;27;20311;-80
2020/12/14 08:15:34;;;;;;;0.20;0.20;;;;;;;;;;5121145;27;20027;-80
2020/12/14 08:18:01;;;;;;;0.20;0.20;;;;;;;;;;5129067;27;20472;-80
2020/12/14 08:20:26;;;;;;;0.20;0.20;;;;;;;;;;5120000;28;20027;-79
2020/12/14 08:22:52;;;;;;;0.20;0.20;;;;;;;;;;5106057;28;20471;-79
2020/12/14 08:25:20;;;;;;;0.20;0.20;;;;;;;;;;5102838;28;20124;-78
2020/12/14 08:27:47;;;;;;;0.20;0.20;;;;;;;;;;5117397;28;20165;-78
2020/12/14 08:30:13;;;;;;;0.20;0.20;;;;;;;;;;5110986;27;20055;-78
2020/12/14 08:32:39;;;;;;;0.20;0.20;;;;;;;;;;5107144;28;20085;-78
2020/12/14 08:35:23;;;;;;;0.20;0.20;;;;;;;;;;5114276;28;20028;-79
2020/12/14 08:37:48;;;;;;;0.20;0.20;;;;;;;;;;5117757;28;20530;-80
2020/12/14 08:40:14;;;;;;;0.20;0.20;;;;;;;;;;5116930;28;20024;-77
2020/12/14 08:42:39;;;;;;;0.20;0.20;;;;;;;;;;5113885;28;20048;-75
2020/12/14 08:45:05;;;;;;;0.20;0.20;;;;;;;;;;5114318;27;20262;-75
2020/12/14 08:47:34;;;;;;;0.30;0.30;;;;;;;;;;5115121;27;20744;-75
2020/12/14 08:49:59;;;;;;;0.20;0.20;;;;;;;;;;5113290;28;20042;-76
2020/12/14 08:52:24;;;;;;;0.20;0.20;;;;;;;;;;5096929;28;20024;-76
2020/12/14 08:54:56;;;;;;;0.20;0.20;;;;;;;;;;5114472;28;20844;-77
2020/12/14 08:57:21;;;;;;;0.20;0.20;;;;;;;;;;5130069;27;20375;-77
2020/12/14 08:59:46;;;;;;;0.20;0.20;;;;;;;;;;5116874;27;20043;-77
2020/12/14 09:02:17;;;;;;;0.30;0.30;;;;;;;;;;5115899;27;20037;-76
2020/12/14 09:04:42;;;;;;;0.30;0.30;;;;;;;;;;5113169;28;20280;-76
2020/12/14 09:07:10;;;;;;;0.20;0.20;;;;;;;;;;5113133;28;20375;-76
2020/12/14 09:09:37;;;;;;;0.20;0.20;;;;;;;;;;5112853;28;20074;-75
2020/12/14 09:12:03;;;;;;;0.25;0.25;;;;;;;;;;5097432;28;20051;-77
2020/12/14 09:14:29;;;;;;;0.20;0.20;;;;;;;;;;5113651;28;20472;-77
2020/12/14 09:16:55;;;;;;;0.30;0.30;;;;;;;;;;5114372;28;20059;-77
2020/12/14 09:19:21;;;;;;;0.20;0.20;;;;;;;;;;5114323;28;20019;-78
2020/12/14 09:21:46;;;;;;;0.20;0.20;;;;;;;;;;5097619;28;20503;-76
2020/12/14 09:24:12;;;;;;;0.20;0.20;;;;;;;;;;5114835;28;20019;-77
2020/12/14 09:26:38;;;;;;;0.20;0.20;;;;;;;;;;5116623;28;20027;-77
2020/12/14 09:29:03;;;;;;;0.20;0.20;;;;;;;;;;5130816;28;20036;-77
2020/12/14 09:31:29;;;;;;;0.20;0.20;;;;;;;;;;5131590;28;20039;-77
2020/12/14 09:33:54;;;;;;;0.20;0.20;;;;;;;;;;5116077;28;20041;-77
2020/12/14 09:36:19;;;;;;;0.20;0.20;;;;;;;;;;5120305;28;20027;-77
2020/12/14 09:38:44;;;;;;;0.20;0.20;;;;;;;;;;5104656;28;20032;-77
2020/12/14 09:41:10;;;;;;;0.20;0.20;;;;;;;;;;5113133;28;20027;-77
2020/12/14 09:43:35;;;;;;;0.20;0.20;;;;;;;;;;5102877;28;20516;-77
2020/12/14 09:46:00;;;;;;;0.20;0.20;;;;;;;;;;5097562;28;20020;-76
2020/12/14 09:48:26;;;;;;;0.20;0.20;;;;;;;;;;5111633;28;20272;-76
2020/12/14 09:50:51;;;;;;;0.20;0.20;;;;;;;;;;5097314;28;20722;-76
2020/12/14 09:53:18;;;;;;;0.20;0.20;;;;;;;;;;5117053;28;20416;-77
2020/12/14 09:55:44;;;;;;;0.20;0.20;;;;;;;;;;5098502;28;20078;-76
2020/12/14 09:58:09;;;;;;;0.20;0.20;;;;;;;;;;5097844;28;20270;-76
2020/12/14 10:00:35;;;;;;;0.20;0.20;;;;;;;;;;5109722;27;20028;-77
2020/12/14 10:03:00;;;;;;;0.20;0.20;;;;;;;;;;5114731;28;20085;-76
2020/12/14 10:05:25;;;;;;;0.20;0.20;;;;;;;;;;5117760;28;20040;-78
2020/12/14 10:07:51;;;;;;;0.20;0.20;;;;;;;;;;5124622;27;20603;-76
2020/12/14 10:10:16;;;;;;;0.20;0.20;;;;;;;;;;5136809;27;20293;-77
2020/12/14 10:12:42;;;;;;;0.20;0.20;;;;;;;;;;5134585;27;20019;-77
2020/12/14 10:15:09;;;;;;;0.20;0.20;;;;;;;;;;5124183;27;20046;-77
2020/12/14 10:17:35;;;;;;;0.20;0.20;;;;;;;;;;5105946;28;20019;-77
2020/12/14 10:20:00;;;;;;;0.20;0.20;;;;;;;;;;5119457;27;20492;-77
2020/12/14 10:22:25;;;;;;;0.20;0.20;;;;;;;;;;5104222;28;20555;-77
2020/12/14 10:24:51;;;;;;;0.20;0.20;;;;;;;;;;5116777;28;20027;-76
2020/12/14 10:27:16;;;;;;;0.10;0.10;;;;;;;;;;5135189;27;20034;-77
2020/12/14 10:29:42;;;;;;;0.17;0.17;;;;;;;;;;5117225;27;20039;-76
2020/12/14 10:32:07;;;;;;;0.20;0.20;;;;;;;;;;5116732;28;20475;-76
2020/12/14 10:34:33;;;;;;;0.20;0.20;;;;;;;;;;5117473;28;20019;-76
2020/12/14 10:36:58;;;;;;;0.10;0.10;;;;;;;;;;5117895;27;20028;-76
2020/12/14 10:39:24;;;;;;;0.10;0.10;;;;;;;;;;5118635;28;20303;-76
2020/12/14 10:41:51;;;;;;;0.20;0.20;;;;;;;;;;5099716;28;20092;-75
2020/12/14 10:44:16;;;;;;;0.10;0.10;;;;;;;;;;5096021;28;20024;-76
2020/12/14 10:46:42;;;;;;;0.10;0.10;;;;;;;;;;5098921;28;20072;-76
2020/12/14 10:49:07;;;;;;;0.10;0.10;;;;;;;;;;5116694;28;20772;-75
2020/12/14 10:51:33;;;;;;;0.10;0.10;;;;;;;;;;5117697;27;20020;-76
2020/12/14 10:53:58;;;;;;;0.10;0.10;;;;;;;;;;5116660;28;20024;-74
2020/12/14 10:56:23;;;;;;;0.10;0.10;;;;;;;;;;5133284;27;20281;-75
2020/12/14 10:58:49;;;;;;;0.10;0.10;;;;;;;;;;5089561;27;20059;-75
2020/12/14 11:01:15;;;;;;;0.10;0.10;;;;;;;;;;5099170;28;20754;-74
2020/12/14 11:03:40;;;;;;;0.10;0.10;;;;;;;;;;5123016;27;20035;-74
2020/12/14 11:06:06;;;;;;;0.10;0.10;;;;;;;;;;5092739;28;20777;-74
2020/12/14 11:08:31;;;;;;;0.10;0.10;;;;;;;;;;5080996;28;20266;-73
2020/12/14 11:10:56;;;;;;;0.00;0.00;;;;;;;;;;5081165;28;20539;-74
2020/12/14 11:13:21;;;;;;;0.10;0.10;;;;;;;;;;5087155;27;20045;-76
2020/12/14 11:15:47;;;;;;;0.10;0.10;;;;;;;;;;5101221;27;20490;-75
2020/12/14 11:18:12;;;;;;;0.10;0.10;;;;;;;;;;5131113;27;20027;-74
2020/12/14 11:20:38;;;;;;;0.05;0.05;;;;;;;;;;5119224;27;20034;-75
2020/12/14 11:23:03;;;;;;;0.10;0.10;;;;;;;;;;5103742;28;20031;-75
2020/12/14 11:25:29;;;;;;;0.00;0.00;;;;;;;;;;5081652;28;20906;-76
2020/12/14 11:27:54;;;;;;;0.05;0.05;;;;;;;;;;5115938;28;20028;-74
2020/12/14 11:30:19;;;;;;;0.10;0.10;;;;;;;;;;5080911;28;20031;-76
2020/12/14 11:32:45;;;;;;;0.00;0.00;;;;;;;;;;5098845;28;20330;-76
2020/12/14 11:35:10;;;;;;;0.10;0.10;;;;;;;;;;5099193;28;20035;-75
2020/12/14 11:37:36;;;;;;;0.10;0.10;;;;;;;;;;5118474;27;20118;-76
2020/12/14 11:40:02;;;;;;;0.10;0.10;;;;;;;;;;5084166;28;21273;-76
2020/12/14 11:42:27;;;;;;;0.10;0.10;;;;;;;;;;5115811;27;20563;-75
2020/12/14 11:44:53;;;;;;;0.10;0.10;;;;;;;;;;5098102;28;20119;-76
2020/12/14 11:47:18;;;;;;;0.10;0.10;;;;;;;;;;5122576;27;20031;-76
2020/12/14 11:49:44;;;;;;;0.10;0.10;;;;;;;;;;5100564;28;20031;-76
2020/12/14 11:52:10;;;;;;;0.10;0.10;;;;;;;;;;5098580;28;20042;-76
2020/12/14 11:54:35;;;;;;;0.10;0.10;;;;;;;;;;5116319;28;20388;-76
2020/12/14 11:57:01;;;;;;;0.10;0.10;;;;;;;;;;5117181;28;20450;-75
2020/12/14 11:59:26;;;;;;;0.10;0.10;;;;;;;;;;5115866;28;20096;-76
2020/12/14 12:01:53;;;;;;;0.13;0.13;;;;;;;;;;5133445;27;20055;-77
2020/12/14 12:04:18;;;;;;;0.10;0.10;;;;;;;;;;5093742;28;20025;-75
2020/12/14 12:06:44;;;;;;;0.10;0.10;;;;;;;;;;5105920;28;20380;-75
2020/12/14 12:09:12;;;;;;;0.10;0.10;;;;;;;;;;5111020;28;20308;-76
2020/12/14 12:11:37;;;;;;;0.10;0.10;;;;;;;;;;5092135;28;20085;-75
2020/12/14 12:14:02;;;;;;;0.10;0.10;;;;;;;;;;5093799;27;20065;-75
2020/12/14 12:16:28;;;;;;;0.15;0.15;;;;;;;;;;5113905;27;20270;-76
2020/12/14 12:18:53;;;;;;;0.20;0.20;;;;;;;;;;5094687;28;20647;-76
2020/12/14 12:21:22;;;;;;;0.20;0.20;;;;;;;;;;5112635;27;20412;-75
2020/12/14 12:23:47;;;;;;;0.10;0.10;;;;;;;;;;5114209;28;20035;-75
2020/12/14 12:26:13;;;;;;;0.10;0.10;;;;;;;;;;5095639;27;20649;-76
2020/12/14 12:28:38;;;;;;;0.20;0.20;;;;;;;;;;5116009;27;20272;-75
2020/12/14 12:31:24;;;;;;;0.10;0.10;;;;;;;;;;5095621;28;20042;-76
2020/12/14 12:33:55;;;;;;;0.10;0.10;;;;;;;;;;5096114;28;20028;-75
2020/12/14 12:36:21;;;;;;;0.10;0.10;;;;;;;;;;5112438;28;20471;-76
2020/12/14 12:38:46;;;;;;;0.10;0.10;;;;;;;;;;5108391;28;20089;-75
2020/12/14 12:41:11;;;;;;;0.20;0.20;;;;;;;;;;5096388;28;20058;-77
2020/12/14 12:43:36;;;;;;;0.10;0.10;;;;;;;;;;5101041;27;20444;-76
2020/12/14 12:46:02;;;;;;;0.17;0.17;;;;;;;;;;5088641;28;20272;-77
2020/12/14 12:48:27;;;;;;;0.10;0.10;;;;;;;;;;5105294;28;20062;-77
2020/12/14 12:50:53;;;;;;;0.10;0.10;;;;;;;;;;5110841;28;20433;-77
2020/12/14 12:53:24;;;;;;;0.13;0.13;;;;;;;;;;5093020;28;20024;-74
2020/12/14 12:55:50;;;;;;;0.10;0.10;;;;;;;;;;5093656;28;20369;-76
2020/12/14 12:58:15;;;;;;;0.10;0.10;;;;;;;;;;5088338;28;20042;-75
2020/12/14 13:00:41;;;;;;;0.10;0.10;;;;;;;;;;5105328;28;20028;-76
2020/12/14 13:03:06;;;;;;;0.20;0.10;;;;;;;;;;5100278;27;20028;-76
2020/12/14 13:05:32;;;;;;;0.10;0.10;;;;;;;;;;5106960;27;20144;-76
2020/12/14 13:07:57;;;;;;;0.10;0.10;;;;;;;;;;5097928;28;20118;-76
2020/12/14 13:10:23;;;;;;;0.10;0.10;;;;;;;;;;5106835;28;20044;-76
2020/12/14 13:12:48;;;;;;;0.10;0.10;;;;;;;;;;5094153;28;20043;-75
2020/12/14 13:15:14;;;;;;;0.30;0.20;;;;;;;;;;5097871;28;20028;-77
2020/12/14 13:17:39;;;;;;;0.10;0.10;;;;;;;;;;5108179;28;20322;-77
2020/12/14 13:20:04;;;;;;;0.10;0.10;;;;;;;;;;5100789;28;20039;-77
2020/12/14 13:22:30;;;;;;;0.10;0.10;;;;;;;;;;5109343;28;20027;-76
2020/12/14 13:24:55;;;;;;;0.10;0.10;;;;;;;;;;5109992;28;20035;-76
2020/12/14 13:27:20;;;;;;;0.10;0.10;;;;;;;;;;5089286;28;20351;-76
2020/12/14 13:29:46;;;;;;;0.10;0.10;;;;;;;;;;5102062;28;20533;-75
2020/12/14 13:32:11;;;;;;;0.10;0.10;;;;;;;;;;5109244;28;20031;-76
2020/12/14 13:34:36;;;;;;;0.10;0.10;;;;;;;;;;5101624;28;20076;-76
2020/12/14 13:37:01;;;;;;;0.10;0.10;;;;;;;;;;5090625;28;20388;-76
2020/12/14 13:39:28;;;;;;;0.10;0.10;;;;;;;;;;5111047;28;20254;-76
2020/12/14 13:41:54;;;;;;;0.10;0.10;;;;;;;;;;5122856;28;20112;-75
2020/12/14 13:44:19;;;;;;;0.10;0.10;;;;;;;;;;5117193;28;20460;-77
2020/12/14 13:46:44;;;;;;;0.10;0.10;;;;;;;;;;5116315;28;20092;-76
2020/12/14 13:49:10;;;;;;;0.17;0.17;;;;;;;;;;5096474;28;20032;-77
2020/12/14 13:51:35;;;;;;;0.10;0.10;;;;;;;;;;5109027;28;20296;-75
2020/12/14 13:54:01;;;;;;;0.10;0.10;;;;;;;;;;5111855;28;20066;-75
2020/12/14 13:56:26;;;;;;;0.10;0.10;;;;;;;;;;5116284;28;20075;-74
2020/12/14 13:58:51;;;;;;;0.10;0.10;;;;;;;;;;5093677;28;20032;-74
2020/12/14 14:01:17;;;;;;;0.10;0.10;;;;;;;;;;5094348;28;20034;-75
2020/12/14 14:03:43;;;;;;;0.10;0.10;;;;;;;;;;5112938;28;20076;-75
2020/12/14 14:06:08;;;;;;;0.10;0.10;;;;;;;;;;5090569;28;20122;-75
2020/12/14 14:08:33;;;;;;;0.10;0.10;;;;;;;;;;5081557;28;21056;-74
2020/12/14 14:10:58;;;;;;;0.10;0.10;;;;;;;;;;5075440;28;20122;-74
2020/12/14 14:13:24;;;;;;;0.10;0.10;;;;;;;;;;5094210;28;20304;-73
2020/12/14 14:15:49;;;;;;;0.10;0.10;;;;;;;;;;5112889;28;20342;-74
2020/12/14 14:18:14;;;;;;;0.10;0.10;;;;;;;;;;5100308;28;20105;-76
2020/12/14 14:20:40;;;;;;;0.10;0.10;;;;;;;;;;5087475;28;20035;-76
2020/12/14 14:23:05;;;;;;;0.10;0.10;;;;;;;;;;5109082;28;20034;-75
2020/12/14 14:25:31;;;;;;;0.13;0.13;;;;;;;;;;5126615;28;20087;-75
2020/12/14 14:27:56;;;;;;;0.10;0.10;;;;;;;;;;5105371;28;20043;-76
2020/12/14 14:30:23;;;;;;;0.17;0.17;;;;;;;;;;5120096;28;20028;-75
2020/12/14 14:32:48;;;;;;;0.10;0.10;;;;;;;;;;5117583;28;20020;-76
2020/12/14 14:35:13;;;;;;;0.10;0.10;;;;;;;;;;5078535;28;20031;-74
2020/12/14 14:37:42;;;;;;;0.20;0.20;;;;;;;;;;5095754;28;20038;-73